Talladega, Alabama
Current Conditions -  °F | °C
As of 2:55 PM on Thursday 27 Nov 2014 (Local Time) from KASN Reporting Station
Clear Clear  
Wind Chill: 43°   Ceiling: Unl
Heat Index: 47°   Visibility: 10mi
Dew Point: 28°   Wind: 9mph
Humidity: 49%   Direction: 330°NNW
Pressure: 30.37"   Gusts: 17mph
Location:  33.43°N, 86.1°W
Report Text: KASN 272055Z AUTO 33008G15KT 10SM CLR 08/M02 A3037 RMK AO2 T00831020
Loading
Personal Weather Stations






























Interactive Weather Map New forecast layout! Learn more

10-Day Weather Forecast

Advertisements
Track Severe Weather on mobile